createdAt,value
2016-12-26T00:00:44.671Z,964.12
2016-12-26T00:01:44.691Z,964.15
2016-12-26T00:02:44.711Z,964.16
2016-12-26T00:03:44.780Z,964.15
2016-12-26T00:04:44.750Z,964.16
2016-12-26T00:05:44.770Z,964.15
2016-12-26T00:06:44.787Z,964.13
2016-12-26T00:07:44.809Z,964.17
2016-12-26T00:08:44.879Z,964.16
2016-12-26T00:09:44.849Z,964.13
2016-12-26T00:10:44.868Z,964.19
2016-12-26T00:11:44.888Z,964.18
2016-12-26T00:12:44.908Z,964.19
2016-12-26T00:13:44.927Z,964.18
2016-12-26T00:14:44.950Z,964.15
2016-12-26T00:15:44.969Z,964.19
2016-12-26T00:16:44.988Z,964.16
2016-12-26T00:17:45.006Z,964.16
2016-12-26T00:18:45.076Z,964.15
2016-12-26T00:19:45.058Z,964.18
2016-12-26T00:20:45.065Z,964.18
2016-12-26T00:21:45.086Z,964.18
2016-12-26T00:22:45.106Z,964.17
2016-12-26T00:23:45.125Z,964.19
2016-12-26T00:24:45.145Z,964.24
2016-12-26T00:25:45.164Z,964.2
2016-12-26T00:26:45.185Z,964.27
2016-12-26T00:27:45.216Z,964.2
2016-12-26T00:28:45.276Z,964.19
2016-12-26T00:29:45.244Z,964.23
2016-12-26T00:30:45.264Z,964.25
2016-12-26T00:31:45.283Z,964.27
2016-12-26T00:32:45.303Z,964.23
2016-12-26T00:33:45.323Z,964.25
2016-12-26T00:34:45.344Z,964.28
2016-12-26T00:35:45.363Z,964.3
2016-12-26T00:36:45.384Z,964.25
2016-12-26T00:37:45.402Z,964.24
2016-12-26T00:38:45.423Z,964.25
2016-12-26T00:39:45.443Z,964.27
2016-12-26T00:40:45.462Z,964.21
2016-12-26T00:41:45.483Z,964.2
2016-12-26T00:42:45.502Z,964.2
2016-12-26T00:43:45.522Z,964.22
2016-12-26T00:44:45.543Z,964.2
2016-12-26T00:45:45.562Z,964.22
2016-12-26T00:46:45.581Z,964.23
2016-12-26T00:47:45.601Z,964.2
2016-12-26T00:48:45.622Z,964.22
2016-12-26T00:49:45.644Z,964.16
2016-12-26T00:50:45.661Z,964.16
2016-12-26T00:51:45.680Z,964.2
2016-12-26T00:52:45.701Z,964.14
2016-12-26T00:53:45.720Z,964.21
2016-12-26T00:54:45.740Z,964.19
2016-12-26T00:55:45.759Z,964.19
2016-12-26T00:56:45.781Z,964.22
2016-12-26T00:57:45.799Z,964.23
2016-12-26T00:58:45.820Z,964.23
2016-12-26T00:59:45.840Z,964.19
2016-12-26T01:00:45.857Z,964.21
2016-12-26T01:01:45.883Z,964.21
2016-12-26T01:02:45.898Z,964.21
2016-12-26T01:03:45.919Z,964.23
2016-12-26T01:04:45.939Z,964.23
2016-12-26T01:05:45.959Z,964.2
2016-12-26T01:06:45.978Z,964.21
2016-12-26T01:07:45.998Z,964.2
2016-12-26T01:08:46.018Z,964.21
2016-12-26T01:09:46.037Z,964.19
2016-12-26T01:10:46.058Z,964.18
2016-12-26T01:11:46.077Z,964.2
2016-12-26T01:12:46.097Z,964.2
2016-12-26T01:13:46.117Z,964.19
2016-12-26T01:14:46.137Z,964.19
2016-12-26T01:15:46.156Z,964.19
2016-12-26T01:16:46.176Z,964.23
2016-12-26T01:17:46.196Z,964.24
2016-12-26T01:18:46.219Z,964.22
2016-12-26T01:19:46.237Z,964.19
2016-12-26T01:20:46.256Z,964.14
2016-12-26T01:21:46.276Z,964.13
2016-12-26T01:22:46.295Z,964.18
2016-12-26T01:23:46.315Z,964.2
2016-12-26T01:24:46.335Z,964.23
2016-12-26T01:25:46.355Z,964.18
2016-12-26T01:26:46.374Z,964.21
2016-12-26T01:27:46.407Z,964.17
2016-12-26T01:28:46.416Z,964.21
2016-12-26T01:29:46.435Z,964.21
2016-12-26T01:30:46.456Z,964.22
2016-12-26T01:31:46.475Z,964.21
2016-12-26T01:32:46.496Z,964.22
2016-12-26T01:33:46.514Z,964.22
2016-12-26T01:34:46.534Z,964.23
2016-12-26T01:35:46.565Z,964.24
2016-12-26T01:36:46.575Z,964.24
2016-12-26T01:37:46.594Z,964.23
2016-12-26T01:38:46.614Z,964.23
2016-12-26T01:39:46.634Z,964.22
2016-12-26T01:40:46.654Z,964.25
2016-12-26T01:41:46.674Z,964.25
2016-12-26T01:42:46.695Z,964.22
2016-12-26T01:43:46.715Z,964.17
2016-12-26T01:44:46.733Z,964.2
2016-12-26T01:45:46.754Z,964.2
2016-12-26T01:46:46.773Z,964.22
2016-12-26T01:47:46.794Z,964.2
2016-12-26T01:48:46.819Z,964.16
2016-12-26T01:49:46.834Z,964.18
2016-12-26T01:50:46.862Z,964.22
2016-12-26T01:51:46.875Z,964.15
2016-12-26T01:52:46.894Z,964.21
2016-12-26T01:53:46.913Z,964.18
2016-12-26T01:54:46.934Z,964.21
2016-12-26T01:55:46.954Z,964.19
2016-12-26T01:56:46.974Z,964.21
2016-12-26T01:57:46.994Z,964.22
2016-12-26T01:58:47.015Z,964.19
2016-12-26T01:59:47.033Z,964.2
2016-12-26T02:00:47.054Z,964.24
2016-12-26T02:01:47.074Z,964.26
2016-12-26T02:02:47.095Z,964.21
2016-12-26T02:03:47.112Z,964.25
2016-12-26T02:04:47.134Z,964.21
2016-12-26T02:05:47.154Z,964.2
2016-12-26T02:06:47.174Z,964.17
2016-12-26T02:07:47.194Z,964.19
2016-12-26T02:08:47.215Z,964.19
2016-12-26T02:09:47.234Z,964.16
2016-12-26T02:10:47.254Z,964.17
2016-12-26T02:11:47.274Z,964.19
2016-12-26T02:12:47.295Z,964.18
2016-12-26T02:13:47.314Z,964.2
2016-12-26T02:14:47.335Z,964.19
2016-12-26T02:15:47.355Z,964.22
2016-12-26T02:16:47.375Z,964.22
2016-12-26T02:17:47.395Z,964.2
2016-12-26T02:18:47.415Z,964.27
2016-12-26T02:19:47.436Z,964.19
2016-12-26T02:20:47.473Z,964.2
2016-12-26T02:21:47.476Z,964.19
2016-12-26T02:22:47.495Z,964.18
2016-12-26T02:23:47.516Z,964.17
2016-12-26T02:24:47.535Z,964.19
2016-12-26T02:25:47.555Z,964.15
2016-12-26T02:26:47.575Z,964.16
2016-12-26T02:27:47.597Z,964.19
2016-12-26T02:28:47.631Z,964.19
2016-12-26T02:29:47.635Z,964.16
2016-12-26T02:30:47.655Z,964.17
2016-12-26T02:31:47.675Z,964.12
2016-12-26T02:32:47.695Z,964.13
2016-12-26T02:33:47.715Z,964.13
2016-12-26T02:34:47.737Z,964.1
2016-12-26T02:35:47.755Z,964.11
2016-12-26T02:36:47.775Z,964.07
2016-12-26T02:37:47.795Z,964.09
2016-12-26T02:38:47.815Z,964.11
2016-12-26T02:39:47.834Z,964.12
2016-12-26T02:40:47.857Z,964.12
2016-12-26T02:41:47.874Z,964.09
2016-12-26T02:42:47.896Z,964.1
2016-12-26T02:43:47.918Z,964.09
2016-12-26T02:44:47.935Z,964.08
2016-12-26T02:45:47.955Z,964.03
2016-12-26T02:46:47.974Z,964.07
2016-12-26T02:47:47.995Z,964.05
2016-12-26T02:48:48.014Z,964.05
2016-12-26T02:49:48.034Z,964.06
2016-12-26T02:50:48.056Z,964.06
2016-12-26T02:51:48.077Z,964.04
2016-12-26T02:52:48.095Z,964.02
2016-12-26T02:53:48.114Z,964.04
2016-12-26T02:54:48.135Z,964
2016-12-26T02:55:48.155Z,964.02
2016-12-26T02:56:48.176Z,964
2016-12-26T02:57:48.195Z,963.97
2016-12-26T02:58:48.217Z,963.98
2016-12-26T02:59:48.235Z,964
2016-12-26T03:00:48.256Z,964.03
2016-12-26T03:01:48.274Z,963.98
2016-12-26T03:02:48.299Z,963.99
2016-12-26T03:03:48.316Z,963.98
2016-12-26T03:04:48.338Z,963.98
2016-12-26T03:05:48.356Z,963.97
2016-12-26T03:06:48.377Z,964.03
2016-12-26T03:07:48.397Z,963.98
2016-12-26T03:08:48.417Z,964.03
2016-12-26T03:09:48.437Z,964.03
2016-12-26T03:10:48.457Z,964.03
2016-12-26T03:11:48.478Z,964
2016-12-26T03:12:48.497Z,963.96
2016-12-26T03:13:48.534Z,963.97
2016-12-26T03:14:48.539Z,963.96
2016-12-26T03:15:48.560Z,963.97
2016-12-26T03:16:48.578Z,963.96
2016-12-26T03:17:48.598Z,963.98
2016-12-26T03:18:48.619Z,963.96
2016-12-26T03:19:48.638Z,963.93
2016-12-26T03:20:48.733Z,963.94
2016-12-26T03:21:48.693Z,963.92
2016-12-26T03:22:48.699Z,963.94
2016-12-26T03:23:48.719Z,963.95
2016-12-26T03:24:48.739Z,964
2016-12-26T03:25:48.760Z,963.95
2016-12-26T03:26:48.780Z,963.98
2016-12-26T03:27:48.799Z,963.99
2016-12-26T03:28:48.820Z,963.95
2016-12-26T03:29:48.840Z,963.92
2016-12-26T03:30:48.859Z,963.93
2016-12-26T03:31:48.880Z,963.92
2016-12-26T03:32:48.900Z,963.94
2016-12-26T03:33:48.921Z,963.9
2016-12-26T03:34:48.939Z,963.93
2016-12-26T03:35:48.960Z,963.9
2016-12-26T03:36:48.990Z,963.95
2016-12-26T03:37:49.002Z,963.88
2016-12-26T03:38:49.021Z,963.85
2016-12-26T03:39:49.041Z,963.9
2016-12-26T03:40:49.062Z,963.85
2016-12-26T03:41:49.081Z,963.86
2016-12-26T03:42:49.103Z,963.81
2016-12-26T03:43:49.124Z,963.83
2016-12-26T03:44:49.145Z,963.81
2016-12-26T03:45:49.162Z,963.89
2016-12-26T03:46:49.183Z,963.82
2016-12-26T03:47:49.204Z,963.84
2016-12-26T03:48:49.223Z,963.79
2016-12-26T03:49:49.244Z,963.82
2016-12-26T03:50:49.264Z,963.82
2016-12-26T03:51:49.286Z,963.83
2016-12-26T03:52:49.304Z,963.84
2016-12-26T03:53:49.325Z,963.86
2016-12-26T03:54:49.346Z,963.82
2016-12-26T03:55:49.366Z,963.82
2016-12-26T03:56:49.385Z,963.8
2016-12-26T03:57:49.406Z,963.76
2016-12-26T03:58:49.426Z,963.75
2016-12-26T03:59:49.446Z,963.7
2016-12-26T04:00:49.466Z,963.67
2016-12-26T04:01:49.488Z,963.7
2016-12-26T04:02:49.507Z,963.72
2016-12-26T04:03:49.526Z,963.68
2016-12-26T04:04:49.546Z,963.7
2016-12-26T04:05:49.567Z,963.69
2016-12-26T04:06:49.602Z,963.68
2016-12-26T04:07:49.607Z,963.66
2016-12-26T04:08:49.627Z,963.7
2016-12-26T04:09:49.647Z,963.68
2016-12-26T04:10:49.667Z,963.66
2016-12-26T04:11:49.691Z,963.66
2016-12-26T04:12:49.708Z,963.66
2016-12-26T04:13:49.727Z,963.63
2016-12-26T04:14:49.762Z,963.62
2016-12-26T04:15:49.768Z,963.62
2016-12-26T04:16:49.788Z,963.62
2016-12-26T04:17:49.807Z,963.58
2016-12-26T04:18:49.827Z,963.66
2016-12-26T04:19:49.849Z,963.58
2016-12-26T04:20:49.869Z,963.6
2016-12-26T04:21:49.888Z,963.66
2016-12-26T04:22:49.909Z,963.63
2016-12-26T04:23:49.930Z,963.7
2016-12-26T04:24:49.949Z,963.72
2016-12-26T04:25:49.968Z,963.73
2016-12-26T04:26:49.988Z,963.73
2016-12-26T04:27:50.010Z,963.76
2016-12-26T04:28:50.029Z,963.72
2016-12-26T04:29:50.049Z,963.72
2016-12-26T04:30:50.069Z,963.72
2016-12-26T04:31:50.090Z,963.71
2016-12-26T04:32:50.108Z,963.71
2016-12-26T04:33:50.128Z,963.65
2016-12-26T04:34:50.149Z,963.71
2016-12-26T04:35:50.169Z,963.7
2016-12-26T04:36:50.189Z,963.68
2016-12-26T04:37:50.211Z,963.64
2016-12-26T04:38:50.231Z,963.63
2016-12-26T04:39:50.251Z,963.63
2016-12-26T04:40:50.269Z,963.66
2016-12-26T04:41:50.289Z,963.63
2016-12-26T04:42:50.312Z,963.61
2016-12-26T04:43:50.328Z,963.62
2016-12-26T04:44:50.348Z,963.59
2016-12-26T04:45:50.369Z,963.57
2016-12-26T04:46:50.390Z,963.6
2016-12-26T04:47:50.408Z,963.58
2016-12-26T04:48:50.430Z,963.58
2016-12-26T04:49:50.449Z,963.61
2016-12-26T04:50:50.469Z,963.55
2016-12-26T04:51:50.488Z,963.61
2016-12-26T04:52:50.509Z,963.58
2016-12-26T04:53:50.529Z,963.56
2016-12-26T04:54:50.547Z,963.54
2016-12-26T04:55:50.568Z,963.53
2016-12-26T04:56:50.588Z,963.53
2016-12-26T04:57:50.609Z,963.51
2016-12-26T04:58:50.628Z,963.55
2016-12-26T04:59:50.649Z,963.57
2016-12-26T05:00:50.668Z,963.57
2016-12-26T05:01:50.687Z,963.57
2016-12-26T05:02:50.707Z,963.56
2016-12-26T05:03:50.727Z,963.57
2016-12-26T05:04:50.747Z,963.62
2016-12-26T05:05:50.766Z,963.58
2016-12-26T05:06:50.786Z,963.57
2016-12-26T05:07:50.807Z,963.6
2016-12-26T05:08:50.826Z,963.58
2016-12-26T05:09:50.846Z,963.65
2016-12-26T05:10:50.866Z,963.57
2016-12-26T05:11:50.886Z,963.6
2016-12-26T05:12:50.906Z,963.56
2016-12-26T05:13:50.924Z,963.54
2016-12-26T05:14:50.955Z,963.56
2016-12-26T05:15:50.965Z,963.57
2016-12-26T05:16:50.984Z,963.61
2016-12-26T05:17:51.004Z,963.59
2016-12-26T05:18:51.024Z,963.58
2016-12-26T05:19:51.045Z,963.6
2016-12-26T05:20:51.064Z,963.57
2016-12-26T05:21:51.084Z,963.57
2016-12-26T05:22:51.113Z,963.61
2016-12-26T05:23:51.123Z,963.59
2016-12-26T05:24:51.143Z,963.62
2016-12-26T05:25:51.163Z,963.64
2016-12-26T05:26:51.185Z,963.66
2016-12-26T05:27:51.203Z,963.67
2016-12-26T05:28:51.223Z,963.67
2016-12-26T05:29:51.243Z,963.66
2016-12-26T05:30:51.264Z,963.68
2016-12-26T05:31:51.283Z,963.66
2016-12-26T05:32:51.301Z,963.66
2016-12-26T05:33:51.332Z,963.64
2016-12-26T05:34:51.341Z,963.69
2016-12-26T05:35:51.361Z,963.66
2016-12-26T05:36:51.382Z,963.67
2016-12-26T05:37:51.401Z,963.67
2016-12-26T05:38:51.420Z,963.66
2016-12-26T05:39:51.440Z,963.73
2016-12-26T05:40:51.461Z,963.71
2016-12-26T05:41:51.481Z,963.7
2016-12-26T05:42:51.500Z,963.69
2016-12-26T05:43:51.520Z,963.69
2016-12-26T05:44:51.542Z,963.68
2016-12-26T05:45:51.559Z,963.72
2016-12-26T05:46:51.580Z,963.68
2016-12-26T05:47:51.600Z,963.7
2016-12-26T05:48:51.620Z,963.69
2016-12-26T05:49:51.639Z,963.69
2016-12-26T05:50:51.659Z,963.68
2016-12-26T05:51:51.679Z,963.68
2016-12-26T05:52:51.699Z,963.69
2016-12-26T05:53:51.719Z,963.7
2016-12-26T05:54:51.739Z,963.74
2016-12-26T05:55:51.759Z,963.66
2016-12-26T05:56:51.779Z,963.71
2016-12-26T05:57:51.798Z,963.73
2016-12-26T05:58:51.818Z,963.75
2016-12-26T05:59:51.838Z,963.75
2016-12-26T06:00:51.858Z,963.77
2016-12-26T06:01:51.878Z,963.76
2016-12-26T06:02:51.897Z,963.77
2016-12-26T06:03:51.918Z,963.76
2016-12-26T06:04:51.937Z,963.77
2016-12-26T06:05:51.957Z,963.81
2016-12-26T06:06:51.978Z,963.75
2016-12-26T06:07:51.997Z,963.76
2016-12-26T06:08:52.016Z,963.73
2016-12-26T06:09:52.038Z,963.72
2016-12-26T06:10:52.057Z,963.68
2016-12-26T06:11:52.076Z,963.68
2016-12-26T06:12:52.113Z,963.67
2016-12-26T06:13:52.118Z,963.64
2016-12-26T06:14:52.137Z,963.63
2016-12-26T06:15:52.156Z,963.63
2016-12-26T06:16:52.177Z,963.64
2016-12-26T06:17:52.196Z,963.6
2016-12-26T06:18:52.216Z,963.59
2016-12-26T06:19:52.235Z,963.56
2016-12-26T06:20:52.257Z,963.57
2016-12-26T06:21:52.276Z,963.56
2016-12-26T06:22:52.306Z,963.57
2016-12-26T06:23:52.316Z,963.53
2016-12-26T06:24:52.335Z,963.54
2016-12-26T06:25:52.355Z,963.56
2016-12-26T06:26:52.376Z,963.53
2016-12-26T06:27:52.395Z,963.59
2016-12-26T06:28:52.415Z,963.59
2016-12-26T06:29:52.435Z,963.59
2016-12-26T06:30:52.465Z,963.58
2016-12-26T06:31:52.474Z,963.57
2016-12-26T06:32:52.523Z,963.61
2016-12-26T06:33:52.514Z,963.62
2016-12-26T06:34:52.533Z,963.54
2016-12-26T06:35:52.554Z,963.56
2016-12-26T06:36:52.574Z,963.57
2016-12-26T06:37:52.593Z,963.59
2016-12-26T06:38:52.613Z,963.58
2016-12-26T06:39:52.634Z,963.6
2016-12-26T06:40:52.652Z,963.58
2016-12-26T06:41:52.673Z,963.61
2016-12-26T06:42:52.693Z,963.59
2016-12-26T06:43:52.713Z,963.58
2016-12-26T06:44:52.734Z,963.61
2016-12-26T06:45:52.753Z,963.59
2016-12-26T06:46:52.773Z,963.58
2016-12-26T06:47:52.793Z,963.58
2016-12-26T06:48:52.811Z,963.59
2016-12-26T06:49:52.832Z,963.54
2016-12-26T06:50:52.854Z,963.49
2016-12-26T06:51:52.872Z,963.51
2016-12-26T06:52:52.892Z,963.52
2016-12-26T06:53:52.913Z,963.51
2016-12-26T06:54:52.933Z,963.5
2016-12-26T06:55:52.952Z,963.52
2016-12-26T06:56:52.973Z,963.52
2016-12-26T06:57:52.992Z,963.49
2016-12-26T06:58:53.012Z,963.46
2016-12-26T06:59:53.033Z,963.5
2016-12-26T07:00:53.053Z,963.5
2016-12-26T07:01:53.074Z,963.49
2016-12-26T07:02:53.092Z,963.5
2016-12-26T07:03:53.113Z,963.54
2016-12-26T07:04:53.133Z,963.48
2016-12-26T07:05:53.154Z,963.5
2016-12-26T07:06:53.172Z,963.52
2016-12-26T07:07:53.193Z,963.5
2016-12-26T07:08:53.215Z,963.5
2016-12-26T07:09:53.232Z,963.56
2016-12-26T07:10:53.252Z,963.56
2016-12-26T07:11:53.273Z,963.57
2016-12-26T07:12:53.294Z,963.55
2016-12-26T07:13:53.313Z,963.57
2016-12-26T07:14:53.333Z,963.48
2016-12-26T07:15:53.372Z,963.48
2016-12-26T07:16:53.373Z,963.53
2016-12-26T07:17:53.392Z,963.48
2016-12-26T07:18:53.413Z,963.47
2016-12-26T07:19:53.432Z,963.5
2016-12-26T07:20:53.452Z,963.47
2016-12-26T07:21:53.472Z,963.47
2016-12-26T07:22:53.493Z,963.48
2016-12-26T07:23:53.531Z,963.51
2016-12-26T07:24:53.532Z,963.49
2016-12-26T07:25:53.553Z,963.49
2016-12-26T07:26:53.574Z,963.47
2016-12-26T07:27:53.592Z,963.43
2016-12-26T07:28:53.613Z,963.44
2016-12-26T07:29:53.633Z,963.44
2016-12-26T07:30:53.655Z,963.43
2016-12-26T07:31:53.672Z,963.4
2016-12-26T07:32:53.693Z,963.4
2016-12-26T07:33:53.713Z,963.4
2016-12-26T07:34:53.735Z,963.4
2016-12-26T07:35:53.753Z,963.38
2016-12-26T07:36:53.773Z,963.38
2016-12-26T07:37:53.793Z,963.4
2016-12-26T07:38:53.813Z,963.38
2016-12-26T07:39:53.833Z,963.36
2016-12-26T07:40:53.853Z,963.45
2016-12-26T07:41:53.877Z,963.44
2016-12-26T07:42:53.893Z,963.46
2016-12-26T07:43:53.914Z,963.51
2016-12-26T07:44:53.934Z,963.46
2016-12-26T07:45:53.954Z,963.5
2016-12-26T07:46:53.974Z,963.54
2016-12-26T07:47:53.994Z,963.47
2016-12-26T07:48:54.015Z,963.48
2016-12-26T07:49:54.036Z,963.51
2016-12-26T07:50:54.053Z,963.44
2016-12-26T07:51:54.075Z,963.5
2016-12-26T07:52:54.095Z,963.4
2016-12-26T07:53:54.115Z,963.45
2016-12-26T07:54:54.134Z,963.44
2016-12-26T07:55:54.154Z,963.35
2016-12-26T07:56:54.175Z,963.42
2016-12-26T07:57:54.194Z,963.38
2016-12-26T07:58:54.215Z,963.37
2016-12-26T07:59:54.235Z,963.37
2016-12-26T08:00:54.256Z,963.37
2016-12-26T08:01:54.275Z,963.36
2016-12-26T08:02:54.295Z,963.35
2016-12-26T08:03:54.317Z,963.39
2016-12-26T08:04:54.335Z,963.38
2016-12-26T08:05:54.356Z,963.37
2016-12-26T08:06:54.376Z,963.41
2016-12-26T08:07:54.396Z,963.44
2016-12-26T08:08:54.438Z,963.45
2016-12-26T08:09:54.437Z,963.47
2016-12-26T08:10:54.455Z,963.48
2016-12-26T08:11:54.476Z,963.48
2016-12-26T08:12:54.496Z,963.49
2016-12-26T08:13:54.518Z,963.48
2016-12-26T08:14:54.537Z,963.48
2016-12-26T08:15:54.556Z,963.5
2016-12-26T08:16:54.595Z,963.47
2016-12-26T08:17:54.597Z,963.47
2016-12-26T08:18:54.618Z,963.45
2016-12-26T08:19:54.637Z,963.41
2016-12-26T08:20:54.658Z,963.43
2016-12-26T08:21:54.677Z,963.4
2016-12-26T08:22:54.698Z,963.44
2016-12-26T08:23:54.720Z,963.46
2016-12-26T08:24:54.738Z,963.44
2016-12-26T08:25:54.760Z,963.47
2016-12-26T08:26:54.778Z,963.42
2016-12-26T08:27:54.799Z,963.41
2016-12-26T08:28:54.818Z,963.41
2016-12-26T08:29:54.840Z,963.36
2016-12-26T08:30:54.859Z,963.36
2016-12-26T08:31:54.881Z,963.35
2016-12-26T08:32:54.900Z,963.33
2016-12-26T08:33:54.922Z,963.32
2016-12-26T08:34:54.942Z,963.32
2016-12-26T08:35:54.964Z,963.29
2016-12-26T08:36:54.983Z,963.32
2016-12-26T08:37:55.003Z,963.27
2016-12-26T08:38:55.024Z,963.27
2016-12-26T08:39:55.043Z,963.27
2016-12-26T08:40:55.064Z,963.26
2016-12-26T08:41:55.084Z,963.3
2016-12-26T08:42:55.106Z,963.27
2016-12-26T08:43:55.126Z,963.36
2016-12-26T08:44:55.145Z,963.36
2016-12-26T08:45:55.166Z,963.43
2016-12-26T08:46:55.186Z,963.5
2016-12-26T08:47:55.208Z,963.52
2016-12-26T08:48:55.227Z,963.56
2016-12-26T08:49:55.248Z,963.58
2016-12-26T08:50:55.269Z,963.58
2016-12-26T08:51:55.290Z,963.52
2016-12-26T08:52:55.309Z,963.58
2016-12-26T08:53:55.328Z,963.55
2016-12-26T08:54:55.351Z,963.53
2016-12-26T08:55:55.369Z,963.54
2016-12-26T08:56:55.391Z,963.55
2016-12-26T08:57:55.412Z,963.5
2016-12-26T08:58:55.432Z,963.55
2016-12-26T08:59:55.451Z,963.55
2016-12-26T09:00:55.473Z,963.56
2016-12-26T09:01:55.504Z,963.56
2016-12-26T09:02:55.515Z,963.52
2016-12-26T09:03:55.535Z,963.51
2016-12-26T09:04:55.556Z,963.53
2016-12-26T09:05:55.578Z,963.47
2016-12-26T09:06:55.597Z,963.49
2016-12-26T09:07:55.620Z,963.5
2016-12-26T09:08:55.639Z,963.54
2016-12-26T09:09:55.663Z,963.56
2016-12-26T09:10:55.679Z,963.51
2016-12-26T09:11:55.701Z,963.5
2016-12-26T09:12:55.722Z,963.49
2016-12-26T09:13:55.743Z,963.52
2016-12-26T09:14:55.765Z,963.52
2016-12-26T09:15:55.786Z,963.55
2016-12-26T09:16:55.806Z,963.56
2016-12-26T09:17:55.826Z,963.58
2016-12-26T09:18:55.847Z,963.62
2016-12-26T09:19:55.868Z,963.57
2016-12-26T09:20:55.891Z,963.54
2016-12-26T09:21:55.911Z,963.44
2016-12-26T09:22:55.931Z,963.39
2016-12-26T09:23:55.953Z,963.41
2016-12-26T09:24:55.974Z,963.39
2016-12-26T09:25:55.996Z,963.37
2016-12-26T09:26:56.021Z,963.38
2016-12-26T09:27:56.039Z,963.47
2016-12-26T09:28:56.086Z,963.48
2016-12-26T09:29:56.082Z,963.45
2016-12-26T09:30:56.104Z,963.49
2016-12-26T09:31:56.125Z,963.56
2016-12-26T09:32:56.162Z,963.54
2016-12-26T09:33:56.169Z,963.57
2016-12-26T09:34:56.192Z,963.56
2016-12-26T09:35:56.213Z,963.57
2016-12-26T09:36:56.235Z,963.53
2016-12-26T09:37:56.258Z,963.58
2016-12-26T09:38:56.280Z,963.53
2016-12-26T09:39:56.303Z,963.53
2016-12-26T09:40:56.327Z,963.55
2016-12-26T09:41:56.347Z,963.48
2016-12-26T09:42:56.372Z,963.55
2016-12-26T09:43:56.392Z,963.52
2016-12-26T09:44:56.415Z,963.48
2016-12-26T09:45:56.438Z,963.49
2016-12-26T09:46:56.464Z,963.49
2016-12-26T09:47:56.506Z,963.48
2016-12-26T09:48:56.506Z,963.52
2016-12-26T09:49:56.532Z,963.48
2016-12-26T09:50:56.554Z,963.48
2016-12-26T09:51:56.578Z,963.5
2016-12-26T09:52:56.601Z,963.49
2016-12-26T09:53:56.625Z,963.56
2016-12-26T09:54:56.648Z,963.52
2016-12-26T09:55:56.679Z,963.55
2016-12-26T09:56:56.697Z,963.53
2016-12-26T09:57:56.721Z,963.6
2016-12-26T09:58:56.743Z,963.62
2016-12-26T09:59:56.768Z,963.52
2016-12-26T10:00:56.792Z,963.54
2016-12-26T10:01:56.816Z,963.55
2016-12-26T10:02:56.841Z,963.53
2016-12-26T10:03:56.882Z,963.52
2016-12-26T10:04:56.889Z,963.54
2016-12-26T10:05:56.911Z,963.54
2016-12-26T10:06:56.935Z,963.55
2016-12-26T10:07:56.960Z,963.55
2016-12-26T10:08:56.985Z,963.55
2016-12-26T10:09:57.010Z,963.48
2016-12-26T10:10:57.035Z,963.49
2016-12-26T10:11:57.059Z,963.43
2016-12-26T10:12:57.083Z,963.45
2016-12-26T10:13:57.108Z,963.48
2016-12-26T10:14:57.133Z,963.46
2016-12-26T10:15:57.158Z,963.44
2016-12-26T10:16:57.182Z,963.43
2016-12-26T10:17:57.207Z,963.43
2016-12-26T10:18:57.235Z,963.4
2016-12-26T10:19:57.257Z,963.48
2016-12-26T10:20:57.281Z,963.43
2016-12-26T10:21:57.307Z,963.37
2016-12-26T10:22:57.331Z,963.37
2016-12-26T10:23:57.356Z,963.43
2016-12-26T10:24:57.381Z,963.37
2016-12-26T10:25:57.407Z,963.37
2016-12-26T10:26:57.442Z,963.41
2016-12-26T10:27:57.456Z,963.43
2016-12-26T10:28:57.482Z,963.43
2016-12-26T10:29:57.506Z,963.42
2016-12-26T10:30:57.533Z,963.41
2016-12-26T10:31:57.557Z,963.44
2016-12-26T10:32:57.583Z,963.46
2016-12-26T10:33:57.607Z,963.46
2016-12-26T10:34:57.644Z,963.44
2016-12-26T10:35:57.658Z,963.45
2016-12-26T10:36:57.683Z,963.49
2016-12-26T10:37:57.708Z,963.47
2016-12-26T10:38:57.733Z,963.39
2016-12-26T10:39:57.759Z,963.47
2016-12-26T10:40:57.785Z,963.4
2016-12-26T10:41:57.809Z,963.46
2016-12-26T10:42:57.838Z,963.46
2016-12-26T10:43:57.911Z,963.4
2016-12-26T10:44:57.887Z,963.43
2016-12-26T10:45:57.916Z,963.33
2016-12-26T10:46:57.937Z,963.33
2016-12-26T10:47:57.963Z,963.28
2016-12-26T10:48:58.040Z,963.27
2016-12-26T10:49:58.015Z,963.29
2016-12-26T10:50:58.041Z,963.29
2016-12-26T10:51:58.066Z,963.2
2016-12-26T10:52:58.090Z,963.17
2016-12-26T10:53:58.115Z,963.17
2016-12-26T10:54:58.142Z,963.21
2016-12-26T10:55:58.167Z,963.18
2016-12-26T10:56:58.193Z,963.18
2016-12-26T10:57:58.294Z,963.22
2016-12-26T10:58:58.255Z,963.24
2016-12-26T10:59:58.271Z,963.21
2016-12-26T11:00:58.294Z,963.21
2016-12-26T11:01:58.320Z,963.23
2016-12-26T11:02:58.346Z,963.2
2016-12-26T11:03:58.370Z,963.14
2016-12-26T11:04:58.395Z,963.25
2016-12-26T11:05:58.425Z,963.16
2016-12-26T11:06:58.447Z,963.22
2016-12-26T11:07:58.473Z,963.17
2016-12-26T11:08:58.497Z,963.19
2016-12-26T11:09:58.523Z,963.16
2016-12-26T11:10:58.550Z,963.19
2016-12-26T11:11:58.573Z,963.15
2016-12-26T11:12:58.599Z,963.18
2016-12-26T11:13:58.636Z,963.23
2016-12-26T11:14:58.649Z,963.2
2016-12-26T11:15:58.679Z,963.2
2016-12-26T11:16:58.702Z,963.22
2016-12-26T11:17:58.727Z,963.19
2016-12-26T11:18:58.751Z,963.26
2016-12-26T11:19:58.780Z,963.25
2016-12-26T11:20:58.805Z,963.22
2016-12-26T11:21:58.865Z,963.23
2016-12-26T11:22:58.854Z,963.24
2016-12-26T11:23:58.881Z,963.2
2016-12-26T11:24:58.905Z,963.22
2016-12-26T11:25:58.929Z,963.15
2016-12-26T11:26:58.957Z,963.15
2016-12-26T11:27:58.981Z,963.13
2016-12-26T11:28:59.007Z,963.18
2016-12-26T11:29:59.033Z,963.14
2016-12-26T11:30:59.058Z,963.21
2016-12-26T11:31:59.083Z,963.13
2016-12-26T11:32:59.110Z,963.12
2016-12-26T11:33:59.134Z,963.13
2016-12-26T11:34:59.160Z,963.1
2016-12-26T11:35:59.187Z,963.1
2016-12-26T11:36:59.211Z,963.08
2016-12-26T11:37:59.252Z,963.11
2016-12-26T11:38:59.263Z,963.07
2016-12-26T11:39:59.290Z,963.02
2016-12-26T11:40:59.315Z,963.03
2016-12-26T11:41:59.341Z,963.01
2016-12-26T11:42:59.367Z,963.02
2016-12-26T11:43:59.394Z,963.05
2016-12-26T11:44:59.419Z,962.96
2016-12-26T11:45:59.468Z,962.99
2016-12-26T11:46:59.471Z,963.02
2016-12-26T11:47:59.496Z,963.05
2016-12-26T11:48:59.523Z,963.04
2016-12-26T11:49:59.548Z,963.05
2016-12-26T11:50:59.574Z,963.1
2016-12-26T11:51:59.599Z,963.11
2016-12-26T11:52:59.624Z,963.06
2016-12-26T11:53:59.650Z,963.12
2016-12-26T11:54:59.673Z,963.12
2016-12-26T11:55:59.699Z,963.1
2016-12-26T11:56:59.726Z,963.1
2016-12-26T11:57:59.752Z,963.03
2016-12-26T11:58:59.774Z,963.13
2016-12-26T11:59:59.800Z,963.1
2016-12-26T12:00:59.825Z,963.16
2016-12-26T12:01:59.869Z,963.15
2016-12-26T12:02:59.874Z,963.11
2016-12-26T12:03:59.900Z,963.12
2016-12-26T12:04:59.926Z,963.17
2016-12-26T12:05:59.948Z,963.1
2016-12-26T12:06:59.983Z,963.12
2016-12-26T12:07:59.998Z,963.15
2016-12-26T12:09:00.022Z,963.12
2016-12-26T12:10:00.062Z,963.17
2016-12-26T12:11:00.072Z,963.18
2016-12-26T12:12:00.101Z,963.16
2016-12-26T12:13:00.120Z,963.18
2016-12-26T12:14:00.144Z,963.21
2016-12-26T12:15:00.168Z,963.25
2016-12-26T12:16:00.194Z,963.18
2016-12-26T12:17:00.222Z,963.24
2016-12-26T12:18:00.252Z,963.22
2016-12-26T12:19:00.263Z,963.21
2016-12-26T12:20:00.289Z,963.18
2016-12-26T12:21:00.313Z,963.21
2016-12-26T12:22:00.341Z,963.18
2016-12-26T12:23:00.360Z,963.23
2016-12-26T12:24:00.384Z,963.24
2016-12-26T12:25:00.412Z,963.2
2016-12-26T12:26:00.430Z,963.22
2016-12-26T12:27:00.458Z,963.23
2016-12-26T12:28:00.479Z,963.22
2016-12-26T12:29:00.501Z,963.17
2016-12-26T12:30:00.525Z,963.13
2016-12-26T12:31:00.548Z,963.16
2016-12-26T12:32:00.571Z,963.16